sensor_id;sensor_type;location;lat;lon;timestamp;P1;durP1;ratioP1;P2;durP2;ratioP2
6358;SDS011;3212;51.460;11.868;2022-10-16T00:02:36;3.93;;;1.20;;
6358;SDS011;3212;51.460;11.868;2022-10-16T00:06:00;1.53;;;1.20;;
6358;SDS011;3212;51.460;11.868;2022-10-16T00:09:22;2.60;;;1.20;;
6358;SDS011;3212;51.460;11.868;2022-10-16T00:12:44;1.83;;;1.57;;
6358;SDS011;3212;51.460;11.868;2022-10-16T00:16:07;1.27;;;1.17;;
6358;SDS011;3212;51.460;11.868;2022-10-16T00:19:30;4.37;;;1.40;;
6358;SDS011;3212;51.460;11.868;2022-10-16T00:22:52;1.37;;;1.27;;
6358;SDS011;3212;51.460;11.868;2022-10-16T00:26:15;1.20;;;1.10;;
6358;SDS011;3212;51.460;11.868;2022-10-16T00:29:38;1.30;;;1.20;;
6358;SDS011;3212;51.460;11.868;2022-10-16T00:33:00;1.30;;;1.20;;
6358;SDS011;3212;51.460;11.868;2022-10-16T00:36:23;1.17;;;1.07;;
6358;SDS011;3212;51.460;11.868;2022-10-16T00:39:45;1.60;;;1.27;;
6358;SDS011;3212;51.460;11.868;2022-10-16T00:43:12;1.33;;;1.23;;
6358;SDS011;3212;51.460;11.868;2022-10-16T00:46:38;1.97;;;1.50;;
6358;SDS011;3212;51.460;11.868;2022-10-16T00:50:07;1.10;;;1.00;;
6358;SDS011;3212;51.460;11.868;2022-10-16T00:53:29;1.73;;;1.63;;
6358;SDS011;3212;51.460;11.868;2022-10-16T00:56:51;1.40;;;1.30;;
6358;SDS011;3212;51.460;11.868;2022-10-16T01:00:15;1.20;;;1.10;;
6358;SDS011;3212;51.460;11.868;2022-10-16T01:03:38;1.30;;;1.20;;
6358;SDS011;3212;51.460;11.868;2022-10-16T01:07:07;1.43;;;1.30;;
6358;SDS011;3212;51.460;11.868;2022-10-16T01:10:30;1.30;;;1.20;;
6358;SDS011;3212;51.460;11.868;2022-10-16T01:13:54;1.47;;;1.30;;
6358;SDS011;3212;51.460;11.868;2022-10-16T01:17:18;1.30;;;1.20;;
6358;SDS011;3212;51.460;11.868;2022-10-16T01:20:44;1.27;;;1.17;;
6358;SDS011;3212;51.460;11.868;2022-10-16T01:24:20;2.17;;;1.30;;
6358;SDS011;3212;51.460;11.868;2022-10-16T01:27:48;1.53;;;1.40;;
6358;SDS011;3212;51.460;11.868;2022-10-16T01:31:10;3.13;;;1.50;;
6358;SDS011;3212;51.460;11.868;2022-10-16T01:34:42;1.50;;;1.40;;
6358;SDS011;3212;51.460;11.868;2022-10-16T01:38:09;1.33;;;1.23;;
6358;SDS011;3212;51.460;11.868;2022-10-16T01:41:32;6.87;;;1.20;;
6358;SDS011;3212;51.460;11.868;2022-10-16T01:44:54;1.40;;;1.30;;
6358;SDS011;3212;51.460;11.868;2022-10-16T01:48:17;1.50;;;1.40;;
6358;SDS011;3212;51.460;11.868;2022-10-16T01:51:39;1.40;;;1.30;;
6358;SDS011;3212;51.460;11.868;2022-10-16T01:55:02;1.40;;;1.30;;
6358;SDS011;3212;51.460;11.868;2022-10-16T01:58:25;1.50;;;1.23;;
6358;SDS011;3212;51.460;11.868;2022-10-16T02:01:50;1.27;;;1.17;;
6358;SDS011;3212;51.460;11.868;2022-10-16T02:05:14;3.20;;;1.43;;
6358;SDS011;3212;51.460;11.868;2022-10-16T02:08:35;2.03;;;1.30;;
6358;SDS011;3212;51.460;11.868;2022-10-16T02:11:57;3.00;;;1.27;;
6358;SDS011;3212;51.460;11.868;2022-10-16T02:15:20;1.30;;;1.20;;
6358;SDS011;3212;51.460;11.868;2022-10-16T02:18:42;1.20;;;1.07;;
6358;SDS011;3212;51.460;11.868;2022-10-16T02:22:05;1.40;;;1.30;;
6358;SDS011;3212;51.460;11.868;2022-10-16T02:25:31;1.60;;;1.30;;
6358;SDS011;3212;51.460;11.868;2022-10-16T02:28:53;1.27;;;1.17;;
6358;SDS011;3212;51.460;11.868;2022-10-16T02:32:17;1.27;;;1.17;;
6358;SDS011;3212;51.460;11.868;2022-10-16T02:35:38;1.40;;;1.30;;
6358;SDS011;3212;51.460;11.868;2022-10-16T02:39:02;1.50;;;1.40;;
6358;SDS011;3212;51.460;11.868;2022-10-16T02:42:27;1.40;;;1.30;;
6358;SDS011;3212;51.460;11.868;2022-10-16T02:45:49;1.33;;;1.23;;
6358;SDS011;3212;51.460;11.868;2022-10-16T02:49:12;1.30;;;1.20;;
6358;SDS011;3212;51.460;11.868;2022-10-16T02:52:34;1.50;;;1.40;;
6358;SDS011;3212;51.460;11.868;2022-10-16T02:55:57;2.00;;;1.70;;
6358;SDS011;3212;51.460;11.868;2022-10-16T02:59:19;2.30;;;1.40;;
6358;SDS011;3212;51.460;11.868;2022-10-16T03:02:42;1.60;;;1.50;;
6358;SDS011;3212;51.460;11.868;2022-10-16T03:06:04;1.33;;;1.10;;
6358;SDS011;3212;51.460;11.868;2022-10-16T03:09:27;1.27;;;1.17;;
6358;SDS011;3212;51.460;11.868;2022-10-16T03:12:50;2.90;;;2.30;;
6358;SDS011;3212;51.460;11.868;2022-10-16T03:16:12;1.50;;;1.40;;
6358;SDS011;3212;51.460;11.868;2022-10-16T03:19:35;1.60;;;1.50;;
6358;SDS011;3212;51.460;11.868;2022-10-16T03:22:57;1.50;;;1.30;;
6358;SDS011;3212;51.460;11.868;2022-10-16T03:26:20;1.60;;;1.50;;
6358;SDS011;3212;51.460;11.868;2022-10-16T03:29:42;1.40;;;1.30;;
6358;SDS011;3212;51.460;11.868;2022-10-16T03:33:05;1.90;;;1.80;;
6358;SDS011;3212;51.460;11.868;2022-10-16T03:36:28;2.00;;;1.80;;
6358;SDS011;3212;51.460;11.868;2022-10-16T03:39:51;1.60;;;1.50;;
6358;SDS011;3212;51.460;11.868;2022-10-16T03:43:13;1.70;;;1.60;;
6358;SDS011;3212;51.460;11.868;2022-10-16T03:46:36;1.83;;;1.73;;
6358;SDS011;3212;51.460;11.868;2022-10-16T03:49:59;1.60;;;1.50;;
6358;SDS011;3212;51.460;11.868;2022-10-16T03:53:21;1.70;;;1.60;;
6358;SDS011;3212;51.460;11.868;2022-10-16T03:56:45;1.40;;;1.30;;
6358;SDS011;3212;51.460;11.868;2022-10-16T04:00:08;1.50;;;1.40;;
6358;SDS011;3212;51.460;11.868;2022-10-16T04:03:32;1.80;;;1.33;;
6358;SDS011;3212;51.460;11.868;2022-10-16T04:06:54;1.80;;;1.40;;
6358;SDS011;3212;51.460;11.868;2022-10-16T04:10:17;3.40;;;1.43;;
6358;SDS011;3212;51.460;11.868;2022-10-16T04:13:39;1.50;;;1.40;;
6358;SDS011;3212;51.460;11.868;2022-10-16T04:17:02;1.70;;;1.60;;
6358;SDS011;3212;51.460;11.868;2022-10-16T04:20:25;1.60;;;1.50;;
6358;SDS011;3212;51.460;11.868;2022-10-16T04:23:47;1.37;;;1.27;;
6358;SDS011;3212;51.460;11.868;2022-10-16T04:27:10;1.83;;;1.30;;
6358;SDS011;3212;51.460;11.868;2022-10-16T04:30:33;1.50;;;1.40;;
6358;SDS011;3212;51.460;11.868;2022-10-16T04:33:55;1.60;;;1.50;;
6358;SDS011;3212;51.460;11.868;2022-10-16T04:37:18;2.30;;;1.40;;
6358;SDS011;3212;51.460;11.868;2022-10-16T04:40:41;2.17;;;1.90;;
6358;SDS011;3212;51.460;11.868;2022-10-16T04:44:03;1.60;;;1.50;;
6358;SDS011;3212;51.460;11.868;2022-10-16T04:47:25;3.93;;;1.63;;
6358;SDS011;3212;51.460;11.868;2022-10-16T04:50:48;1.63;;;1.50;;
6358;SDS011;3212;51.460;11.868;2022-10-16T04:54:11;2.17;;;1.50;;
6358;SDS011;3212;51.460;11.868;2022-10-16T04:57:34;1.57;;;1.47;;
6358;SDS011;3212;51.460;11.868;2022-10-16T05:00:57;1.63;;;1.53;;
6358;SDS011;3212;51.460;11.868;2022-10-16T05:04:19;1.90;;;1.70;;
6358;SDS011;3212;51.460;11.868;2022-10-16T05:07:42;1.90;;;1.60;;
6358;SDS011;3212;51.460;11.868;2022-10-16T05:11:05;1.80;;;1.70;;
6358;SDS011;3212;51.460;11.868;2022-10-16T05:14:27;1.60;;;1.50;;
6358;SDS011;3212;51.460;11.868;2022-10-16T05:17:52;1.75;;;1.50;;
6358;SDS011;3212;51.460;11.868;2022-10-16T05:21:13;1.80;;;1.70;;
6358;SDS011;3212;51.460;11.868;2022-10-16T05:24:36;1.77;;;1.67;;
6358;SDS011;3212;51.460;11.868;2022-10-16T05:27:58;1.60;;;1.50;;
6358;SDS011;3212;51.460;11.868;2022-10-16T05:31:20;2.20;;;1.53;;
6358;SDS011;3212;51.460;11.868;2022-10-16T05:34:43;1.70;;;1.60;;
6358;SDS011;3212;51.460;11.868;2022-10-16T05:38:05;5.80;;;1.87;;
6358;SDS011;3212;51.460;11.868;2022-10-16T05:41:28;1.80;;;1.70;;
6358;SDS011;3212;51.460;11.868;2022-10-16T05:44:50;1.53;;;1.43;;
6358;SDS011;3212;51.460;11.868;2022-10-16T05:48:13;2.50;;;1.40;;
6358;SDS011;3212;51.460;11.868;2022-10-16T05:51:35;1.90;;;1.73;;
6358;SDS011;3212;51.460;11.868;2022-10-16T05:54:57;1.50;;;1.40;;
6358;SDS011;3212;51.460;11.868;2022-10-16T05:58:21;4.43;;;1.40;;
6358;SDS011;3212;51.460;11.868;2022-10-16T06:01:44;1.63;;;1.50;;
6358;SDS011;3212;51.460;11.868;2022-10-16T06:05:07;3.20;;;1.40;;
6358;SDS011;3212;51.460;11.868;2022-10-16T06:08:29;1.40;;;1.30;;
6358;SDS011;3212;51.460;11.868;2022-10-16T06:11:53;2.63;;;1.53;;
6358;SDS011;3212;51.460;11.868;2022-10-16T06:15:15;1.87;;;1.50;;
6358;SDS011;3212;51.460;11.868;2022-10-16T06:18:38;1.70;;;1.60;;
6358;SDS011;3212;51.460;11.868;2022-10-16T06:22:01;1.43;;;1.33;;
6358;SDS011;3212;51.460;11.868;2022-10-16T06:25:23;1.52;;;1.42;;
6358;SDS011;3212;51.460;11.868;2022-10-16T06:28:46;1.13;;;1.10;;
6358;SDS011;3212;51.460;11.868;2022-10-16T06:32:08;1.53;;;1.43;;
6358;SDS011;3212;51.460;11.868;2022-10-16T06:35:30;1.33;;;1.23;;
6358;SDS011;3212;51.460;11.868;2022-10-16T06:38:53;1.70;;;1.30;;
6358;SDS011;3212;51.460;11.868;2022-10-16T06:42:15;1.60;;;1.50;;
6358;SDS011;3212;51.460;11.868;2022-10-16T06:45:38;2.67;;;2.47;;
6358;SDS011;3212;51.460;11.868;2022-10-16T06:49:01;2.67;;;2.20;;
6358;SDS011;3212;51.460;11.868;2022-10-16T06:52:23;4.43;;;2.60;;
6358;SDS011;3212;51.460;11.868;2022-10-16T06:55:46;4.80;;;2.00;;
6358;SDS011;3212;51.460;11.868;2022-10-16T06:59:09;1.63;;;1.53;;
6358;SDS011;3212;51.460;11.868;2022-10-16T07:02:32;2.72;;;1.50;;
6358;SDS011;3212;51.460;11.868;2022-10-16T07:05:55;3.57;;;1.50;;
6358;SDS011;3212;51.460;11.868;2022-10-16T07:09:18;1.50;;;1.40;;
6358;SDS011;3212;51.460;11.868;2022-10-16T07:12:40;1.70;;;1.60;;
6358;SDS011;3212;51.460;11.868;2022-10-16T07:16:05;1.60;;;1.50;;
6358;SDS011;3212;51.460;11.868;2022-10-16T07:19:26;1.53;;;1.40;;
6358;SDS011;3212;51.460;11.868;2022-10-16T07:22:48;1.37;;;1.27;;
6358;SDS011;3212;51.460;11.868;2022-10-16T07:26:11;1.40;;;1.30;;
6358;SDS011;3212;51.460;11.868;2022-10-16T07:29:33;1.63;;;1.53;;
6358;SDS011;3212;51.460;11.868;2022-10-16T07:32:56;1.50;;;1.40;;
6358;SDS011;3212;51.460;11.868;2022-10-16T07:36:19;2.80;;;1.30;;
6358;SDS011;3212;51.460;11.868;2022-10-16T07:39:41;2.70;;;1.43;;
6358;SDS011;3212;51.460;11.868;2022-10-16T07:43:04;1.57;;;1.47;;
6358;SDS011;3212;51.460;11.868;2022-10-16T07:46:27;2.40;;;1.43;;
6358;SDS011;3212;51.460;11.868;2022-10-16T07:49:49;2.20;;;1.50;;
6358;SDS011;3212;51.460;11.868;2022-10-16T07:53:13;1.57;;;1.47;;
6358;SDS011;3212;51.460;11.868;2022-10-16T07:56:35;1.30;;;1.20;;
6358;SDS011;3212;51.460;11.868;2022-10-16T07:59:58;1.37;;;1.27;;
6358;SDS011;3212;51.460;11.868;2022-10-16T08:03:21;3.40;;;1.80;;
6358;SDS011;3212;51.460;11.868;2022-10-16T08:06:44;1.43;;;1.33;;
6358;SDS011;3212;51.460;11.868;2022-10-16T08:10:11;1.50;;;1.40;;
6358;SDS011;3212;51.460;11.868;2022-10-16T08:13:32;1.40;;;1.30;;
6358;SDS011;3212;51.460;11.868;2022-10-16T08:16:55;3.33;;;1.57;;
6358;SDS011;3212;51.460;11.868;2022-10-16T08:20:18;1.57;;;1.47;;
6358;SDS011;3212;51.460;11.868;2022-10-16T08:23:40;1.20;;;1.10;;
6358;SDS011;3212;51.460;11.868;2022-10-16T08:27:05;1.77;;;1.20;;
6358;SDS011;3212;51.460;11.868;2022-10-16T08:30:27;1.40;;;1.30;;
6358;SDS011;3212;51.460;11.868;2022-10-16T08:33:50;1.80;;;1.20;;
6358;SDS011;3212;51.460;11.868;2022-10-16T08:37:14;1.30;;;1.20;;
6358;SDS011;3212;51.460;11.868;2022-10-16T08:40:36;1.10;;;1.00;;
6358;SDS011;3212;51.460;11.868;2022-10-16T08:44:03;1.00;;;0.90;;
6358;SDS011;3212;51.460;11.868;2022-10-16T08:47:30;3.53;;;1.23;;
6358;SDS011;3212;51.460;11.868;2022-10-16T08:51:03;1.20;;;1.10;;
6358;SDS011;3212;51.460;11.868;2022-10-16T08:54:28;1.27;;;1.17;;
6358;SDS011;3212;51.460;11.868;2022-10-16T08:57:48;1.10;;;1.00;;
6358;SDS011;3212;51.460;11.868;2022-10-16T09:01:12;1.20;;;1.10;;
6358;SDS011;3212;51.460;11.868;2022-10-16T09:08:16;0.80;;;0.80;;
6358;SDS011;3212;51.460;11.868;2022-10-16T09:11:47;1.77;;;1.00;;
6358;SDS011;3212;51.460;11.868;2022-10-16T09:15:24;1.57;;;0.90;;
6358;SDS011;3212;51.460;11.868;2022-10-16T09:19:04;0.93;;;0.93;;
6358;SDS011;3212;51.460;11.868;2022-10-16T09:22:36;0.70;;;0.70;;
6358;SDS011;3212;51.460;11.868;2022-10-16T09:25:59;2.80;;;0.80;;
6358;SDS011;3212;51.460;11.868;2022-10-16T09:29:24;0.70;;;0.70;;
6358;SDS011;3212;51.460;11.868;2022-10-16T09:32:47;1.63;;;0.80;;
6358;SDS011;3212;51.460;11.868;2022-10-16T09:36:08;0.70;;;0.70;;
6358;SDS011;3212;51.460;11.868;2022-10-16T09:39:31;1.73;;;0.70;;
6358;SDS011;3212;51.460;11.868;2022-10-16T09:43:01;1.27;;;0.80;;
6358;SDS011;3212;51.460;11.868;2022-10-16T09:46:35;4.00;;;0.80;;
6358;SDS011;3212;51.460;11.868;2022-10-16T09:49:58;0.70;;;0.70;;
6358;SDS011;3212;51.460;11.868;2022-10-16T09:53:19;1.13;;;0.70;;
6358;SDS011;3212;51.460;11.868;2022-10-16T09:56:43;2.60;;;0.70;;
6358;SDS011;3212;51.460;11.868;2022-10-16T10:00:08;0.80;;;0.80;;
6358;SDS011;3212;51.460;11.868;2022-10-16T10:03:35;0.70;;;0.70;;
6358;SDS011;3212;51.460;11.868;2022-10-16T10:06:56;1.73;;;0.80;;
6358;SDS011;3212;51.460;11.868;2022-10-16T10:10:21;0.80;;;0.80;;
6358;SDS011;3212;51.460;11.868;2022-10-16T10:13:44;0.90;;;0.80;;
6358;SDS011;3212;51.460;11.868;2022-10-16T10:17:10;0.73;;;0.73;;
6358;SDS011;3212;51.460;11.868;2022-10-16T10:20:34;0.80;;;0.80;;
6358;SDS011;3212;51.460;11.868;2022-10-16T10:23:56;1.17;;;1.03;;
6358;SDS011;3212;51.460;11.868;2022-10-16T10:27:18;0.70;;;0.70;;
6358;SDS011;3212;51.460;11.868;2022-10-16T10:30:42;0.80;;;0.70;;
6358;SDS011;3212;51.460;11.868;2022-10-16T10:38:16;1.35;;;0.80;;
6358;SDS011;3212;51.460;11.868;2022-10-16T10:41:56;0.90;;;0.90;;
6358;SDS011;3212;51.460;11.868;2022-10-16T10:45:37;0.97;;;0.70;;
6358;SDS011;3212;51.460;11.868;2022-10-16T10:49:12;1.57;;;0.90;;
6358;SDS011;3212;51.460;11.868;2022-10-16T10:52:57;2.30;;;0.87;;
6358;SDS011;3212;51.460;11.868;2022-10-16T11:00:12;1.57;;;0.90;;
6358;SDS011;3212;51.460;11.868;2022-10-16T11:03:45;0.80;;;0.80;;
6358;SDS011;3212;51.460;11.868;2022-10-16T11:07:16;1.47;;;0.90;;
6358;SDS011;3212;51.460;11.868;2022-10-16T11:14:19;0.90;;;0.90;;
6358;SDS011;3212;51.460;11.868;2022-10-16T11:17:43;2.40;;;1.07;;
6358;SDS011;3212;51.460;11.868;2022-10-16T11:21:05;0.90;;;0.90;;
6358;SDS011;3212;51.460;11.868;2022-10-16T11:24:35;1.07;;;0.90;;
6358;SDS011;3212;51.460;11.868;2022-10-16T11:28:13;0.73;;;0.73;;
6358;SDS011;3212;51.460;11.868;2022-10-16T11:31:37;1.67;;;0.90;;
6358;SDS011;3212;51.460;11.868;2022-10-16T11:35:02;1.60;;;0.73;;
6358;SDS011;3212;51.460;11.868;2022-10-16T11:42:27;0.80;;;0.80;;
6358;SDS011;3212;51.460;11.868;2022-10-16T11:45:49;1.10;;;0.80;;
6358;SDS011;3212;51.460;11.868;2022-10-16T11:49:13;1.10;;;1.00;;
6358;SDS011;3212;51.460;11.868;2022-10-16T11:52:41;1.77;;;0.80;;
6358;SDS011;3212;51.460;11.868;2022-10-16T11:56:01;1.00;;;0.90;;
6358;SDS011;3212;51.460;11.868;2022-10-16T11:59:26;0.77;;;0.77;;
6358;SDS011;3212;51.460;11.868;2022-10-16T12:03:04;0.90;;;0.80;;
6358;SDS011;3212;51.460;11.868;2022-10-16T12:06:33;0.80;;;0.80;;
6358;SDS011;3212;51.460;11.868;2022-10-16T12:10:09;1.00;;;0.90;;
6358;SDS011;3212;51.460;11.868;2022-10-16T12:13:33;1.73;;;0.70;;
6358;SDS011;3212;51.460;11.868;2022-10-16T12:16:58;1.60;;;0.90;;
6358;SDS011;3212;51.460;11.868;2022-10-16T12:20:21;0.70;;;0.60;;
6358;SDS011;3212;51.460;11.868;2022-10-16T12:23:47;0.83;;;0.80;;
6358;SDS011;3212;51.460;11.868;2022-10-16T12:30:57;1.90;;;0.70;;
6358;SDS011;3212;51.460;11.868;2022-10-16T12:34:22;0.80;;;0.80;;
6358;SDS011;3212;51.460;11.868;2022-10-16T12:37:45;0.70;;;0.70;;
6358;SDS011;3212;51.460;11.868;2022-10-16T12:41:08;0.60;;;0.60;;
6358;SDS011;3212;51.460;11.868;2022-10-16T12:44:32;1.17;;;0.90;;
6358;SDS011;3212;51.460;11.868;2022-10-16T12:47:55;1.43;;;0.60;;
6358;SDS011;3212;51.460;11.868;2022-10-16T12:54:45;0.70;;;0.70;;
6358;SDS011;3212;51.460;11.868;2022-10-16T12:58:11;0.83;;;0.83;;
6358;SDS011;3212;51.460;11.868;2022-10-16T13:01:36;1.10;;;1.00;;
6358;SDS011;3212;51.460;11.868;2022-10-16T13:05:12;1.57;;;1.00;;
6358;SDS011;3212;51.460;11.868;2022-10-16T13:08:41;1.10;;;1.00;;
6358;SDS011;3212;51.460;11.868;2022-10-16T13:15:47;0.73;;;0.73;;
6358;SDS011;3212;51.460;11.868;2022-10-16T13:19:15;1.17;;;0.90;;
6358;SDS011;3212;51.460;11.868;2022-10-16T13:22:51;1.07;;;0.90;;
6358;SDS011;3212;51.460;11.868;2022-10-16T13:26:30;1.33;;;1.23;;
6358;SDS011;3212;51.460;11.868;2022-10-16T13:29:53;1.47;;;1.10;;
6358;SDS011;3212;51.460;11.868;2022-10-16T13:33:16;2.37;;;1.60;;
6358;SDS011;3212;51.460;11.868;2022-10-16T13:36:46;1.10;;;1.00;;
6358;SDS011;3212;51.460;11.868;2022-10-16T13:40:17;0.83;;;0.83;;
6358;SDS011;3212;51.460;11.868;2022-10-16T13:43:36;1.90;;;0.90;;
6358;SDS011;3212;51.460;11.868;2022-10-16T13:47:02;1.00;;;0.90;;
6358;SDS011;3212;51.460;11.868;2022-10-16T13:50:25;1.83;;;1.07;;
6358;SDS011;3212;51.460;11.868;2022-10-16T13:53:47;4.60;;;1.10;;
6358;SDS011;3212;51.460;11.868;2022-10-16T13:57:13;1.27;;;1.17;;
6358;SDS011;3212;51.460;11.868;2022-10-16T14:00:36;1.07;;;0.80;;
6358;SDS011;3212;51.460;11.868;2022-10-16T14:04:02;1.53;;;0.90;;
6358;SDS011;3212;51.460;11.868;2022-10-16T14:07:25;0.90;;;0.90;;
6358;SDS011;3212;51.460;11.868;2022-10-16T14:10:49;1.07;;;0.80;;
6358;SDS011;3212;51.460;11.868;2022-10-16T14:14:11;2.77;;;0.90;;
6358;SDS011;3212;51.460;11.868;2022-10-16T14:17:34;1.40;;;0.90;;
6358;SDS011;3212;51.460;11.868;2022-10-16T14:21:02;1.85;;;0.75;;
6358;SDS011;3212;51.460;11.868;2022-10-16T14:27:59;0.90;;;0.90;;
6358;SDS011;3212;51.460;11.868;2022-10-16T14:31:27;3.13;;;1.00;;
6358;SDS011;3212;51.460;11.868;2022-10-16T14:34:52;1.10;;;1.00;;
6358;SDS011;3212;51.460;11.868;2022-10-16T14:38:18;0.90;;;0.80;;
6358;SDS011;3212;51.460;11.868;2022-10-16T14:41:41;0.90;;;0.90;;
6358;SDS011;3212;51.460;11.868;2022-10-16T14:45:07;1.00;;;0.87;;
6358;SDS011;3212;51.460;11.868;2022-10-16T14:48:26;0.70;;;0.70;;
6358;SDS011;3212;51.460;11.868;2022-10-16T14:51:49;1.00;;;0.90;;
6358;SDS011;3212;51.460;11.868;2022-10-16T14:55:11;3.23;;;1.47;;
6358;SDS011;3212;51.460;11.868;2022-10-16T14:58:34;0.87;;;0.87;;
6358;SDS011;3212;51.460;11.868;2022-10-16T15:01:57;1.00;;;0.93;;
6358;SDS011;3212;51.460;11.868;2022-10-16T15:05:20;2.20;;;1.10;;
6358;SDS011;3212;51.460;11.868;2022-10-16T15:08:43;1.50;;;0.90;;
6358;SDS011;3212;51.460;11.868;2022-10-16T15:12:05;1.47;;;1.10;;
6358;SDS011;3212;51.460;11.868;2022-10-16T15:15:33;0.90;;;0.90;;
6358;SDS011;3212;51.460;11.868;2022-10-16T15:18:54;2.10;;;1.03;;
6358;SDS011;3212;51.460;11.868;2022-10-16T15:22:16;1.77;;;1.10;;
6358;SDS011;3212;51.460;11.868;2022-10-16T15:25:41;1.30;;;1.00;;
6358;SDS011;3212;51.460;11.868;2022-10-16T15:29:03;1.20;;;1.10;;
6358;SDS011;3212;51.460;11.868;2022-10-16T15:32:25;2.00;;;1.00;;
6358;SDS011;3212;51.460;11.868;2022-10-16T15:35:50;1.53;;;1.10;;
6358;SDS011;3212;51.460;11.868;2022-10-16T15:39:14;1.30;;;1.00;;
6358;SDS011;3212;51.460;11.868;2022-10-16T15:42:35;2.93;;;0.87;;
6358;SDS011;3212;51.460;11.868;2022-10-16T15:45:59;1.93;;;1.10;;
6358;SDS011;3212;51.460;11.868;2022-10-16T15:49:21;1.00;;;1.00;;
6358;SDS011;3212;51.460;11.868;2022-10-16T15:52:43;1.53;;;1.30;;
6358;SDS011;3212;51.460;11.868;2022-10-16T15:56:06;1.43;;;1.10;;
6358;SDS011;3212;51.460;11.868;2022-10-16T15:59:28;1.37;;;0.90;;
6358;SDS011;3212;51.460;11.868;2022-10-16T16:02:51;1.10;;;0.90;;
6358;SDS011;3212;51.460;11.868;2022-10-16T16:06:13;1.00;;;0.90;;
6358;SDS011;3212;51.460;11.868;2022-10-16T16:09:36;1.20;;;1.10;;
6358;SDS011;3212;51.460;11.868;2022-10-16T16:12:58;1.30;;;1.20;;
6358;SDS011;3212;51.460;11.868;2022-10-16T16:16:21;3.70;;;0.93;;
6358;SDS011;3212;51.460;11.868;2022-10-16T16:19:43;1.20;;;1.10;;
6358;SDS011;3212;51.460;11.868;2022-10-16T16:23:09;2.63;;;1.27;;
6358;SDS011;3212;51.460;11.868;2022-10-16T16:26:34;1.90;;;1.50;;
6358;SDS011;3212;51.460;11.868;2022-10-16T16:29:56;2.10;;;1.67;;
6358;SDS011;3212;51.460;11.868;2022-10-16T16:33:19;1.93;;;1.60;;
6358;SDS011;3212;51.460;11.868;2022-10-16T16:36:41;3.23;;;2.20;;
6358;SDS011;3212;51.460;11.868;2022-10-16T16:40:05;1.40;;;1.23;;
6358;SDS011;3212;51.460;11.868;2022-10-16T16:43:27;3.33;;;1.73;;
6358;SDS011;3212;51.460;11.868;2022-10-16T16:46:50;2.23;;;1.70;;
6358;SDS011;3212;51.460;11.868;2022-10-16T16:50:13;1.47;;;1.30;;
6358;SDS011;3212;51.460;11.868;2022-10-16T16:53:35;1.40;;;1.10;;
6358;SDS011;3212;51.460;11.868;2022-10-16T16:56:58;1.10;;;1.00;;
6358;SDS011;3212;51.460;11.868;2022-10-16T17:00:21;2.85;;;1.17;;
6358;SDS011;3212;51.460;11.868;2022-10-16T17:03:43;1.47;;;1.37;;
6358;SDS011;3212;51.460;11.868;2022-10-16T17:07:06;1.47;;;1.37;;
6358;SDS011;3212;51.460;11.868;2022-10-16T17:10:29;1.67;;;1.43;;
6358;SDS011;3212;51.460;11.868;2022-10-16T17:13:51;1.20;;;1.10;;
6358;SDS011;3212;51.460;11.868;2022-10-16T17:17:14;1.63;;;1.07;;
6358;SDS011;3212;51.460;11.868;2022-10-16T17:20:37;1.20;;;1.10;;
6358;SDS011;3212;51.460;11.868;2022-10-16T17:24:00;1.63;;;1.33;;
6358;SDS011;3212;51.460;11.868;2022-10-16T17:27:23;1.37;;;1.20;;
6358;SDS011;3212;51.460;11.868;2022-10-16T17:30:45;1.53;;;1.43;;
6358;SDS011;3212;51.460;11.868;2022-10-16T17:34:08;5.00;;;2.80;;
6358;SDS011;3212;51.460;11.868;2022-10-16T17:37:30;3.57;;;2.30;;
6358;SDS011;3212;51.460;11.868;2022-10-16T17:40:52;2.70;;;2.10;;
6358;SDS011;3212;51.460;11.868;2022-10-16T17:44:16;2.30;;;2.03;;
6358;SDS011;3212;51.460;11.868;2022-10-16T17:47:41;4.00;;;3.03;;
6358;SDS011;3212;51.460;11.868;2022-10-16T17:51:04;3.90;;;2.97;;
6358;SDS011;3212;51.460;11.868;2022-10-16T17:54:26;13.60;;;9.10;;
6358;SDS011;3212;51.460;11.868;2022-10-16T17:57:48;10.93;;;6.63;;
6358;SDS011;3212;51.460;11.868;2022-10-16T18:01:13;10.97;;;6.80;;
6358;SDS011;3212;51.460;11.868;2022-10-16T18:04:35;11.90;;;6.93;;
6358;SDS011;3212;51.460;11.868;2022-10-16T18:07:57;11.33;;;6.23;;
6358;SDS011;3212;51.460;11.868;2022-10-16T18:11:20;8.87;;;5.53;;
6358;SDS011;3212;51.460;11.868;2022-10-16T18:14:42;11.13;;;4.90;;
6358;SDS011;3212;51.460;11.868;2022-10-16T18:18:05;4.83;;;2.60;;
6358;SDS011;3212;51.460;11.868;2022-10-16T18:21:27;3.20;;;2.30;;
6358;SDS011;3212;51.460;11.868;2022-10-16T18:24:50;2.73;;;2.20;;
6358;SDS011;3212;51.460;11.868;2022-10-16T18:28:13;3.87;;;2.87;;
6358;SDS011;3212;51.460;11.868;2022-10-16T18:31:35;5.60;;;3.90;;
6358;SDS011;3212;51.460;11.868;2022-10-16T18:34:57;4.20;;;3.40;;
6358;SDS011;3212;51.460;11.868;2022-10-16T18:38:21;5.23;;;3.53;;
6358;SDS011;3212;51.460;11.868;2022-10-16T18:41:43;4.83;;;3.00;;
6358;SDS011;3212;51.460;11.868;2022-10-16T18:45:06;5.53;;;3.10;;
6358;SDS011;3212;51.460;11.868;2022-10-16T18:48:29;8.53;;;3.57;;
6358;SDS011;3212;51.460;11.868;2022-10-16T18:51:51;4.80;;;3.57;;
6358;SDS011;3212;51.460;11.868;2022-10-16T18:55:14;6.83;;;4.20;;
6358;SDS011;3212;51.460;11.868;2022-10-16T18:58:36;4.53;;;3.53;;
6358;SDS011;3212;51.460;11.868;2022-10-16T19:02:00;6.20;;;3.47;;
6358;SDS011;3212;51.460;11.868;2022-10-16T19:05:22;8.20;;;5.50;;
6358;SDS011;3212;51.460;11.868;2022-10-16T19:08:44;6.47;;;5.00;;
6358;SDS011;3212;51.460;11.868;2022-10-16T19:12:07;4.23;;;3.00;;
6358;SDS011;3212;51.460;11.868;2022-10-16T19:15:29;4.00;;;2.80;;
6358;SDS011;3212;51.460;11.868;2022-10-16T19:18:53;3.70;;;2.50;;
6358;SDS011;3212;51.460;11.868;2022-10-16T19:22:15;3.03;;;2.70;;
6358;SDS011;3212;51.460;11.868;2022-10-16T19:25:37;4.47;;;2.97;;
6358;SDS011;3212;51.460;11.868;2022-10-16T19:29:00;4.40;;;2.77;;
6358;SDS011;3212;51.460;11.868;2022-10-16T19:32:22;3.00;;;2.60;;
6358;SDS011;3212;51.460;11.868;2022-10-16T19:35:45;3.17;;;2.40;;
6358;SDS011;3212;51.460;11.868;2022-10-16T19:39:10;2.53;;;2.33;;
6358;SDS011;3212;51.460;11.868;2022-10-16T19:42:33;2.50;;;2.10;;
6358;SDS011;3212;51.460;11.868;2022-10-16T19:45:56;2.30;;;2.10;;
6358;SDS011;3212;51.460;11.868;2022-10-16T19:49:18;2.90;;;2.50;;
6358;SDS011;3212;51.460;11.868;2022-10-16T19:52:40;2.97;;;2.40;;
6358;SDS011;3212;51.460;11.868;2022-10-16T19:56:10;2.97;;;2.67;;
6358;SDS011;3212;51.460;11.868;2022-10-16T19:59:31;5.20;;;2.40;;
6358;SDS011;3212;51.460;11.868;2022-10-16T20:02:54;2.67;;;2.47;;
6358;SDS011;3212;51.460;11.868;2022-10-16T20:09:48;2.60;;;2.40;;
6358;SDS011;3212;51.460;11.868;2022-10-16T20:13:11;3.00;;;2.37;;
6358;SDS011;3212;51.460;11.868;2022-10-16T20:16:34;2.80;;;2.60;;
6358;SDS011;3212;51.460;11.868;2022-10-16T20:19:57;3.10;;;2.70;;
6358;SDS011;3212;51.460;11.868;2022-10-16T20:23:20;3.17;;;2.87;;
6358;SDS011;3212;51.460;11.868;2022-10-16T20:26:48;6.10;;;3.27;;
6358;SDS011;3212;51.460;11.868;2022-10-16T20:30:10;3.00;;;2.70;;
6358;SDS011;3212;51.460;11.868;2022-10-16T20:33:33;3.83;;;3.00;;
6358;SDS011;3212;51.460;11.868;2022-10-16T20:36:55;4.40;;;3.20;;
6358;SDS011;3212;51.460;11.868;2022-10-16T20:40:18;3.13;;;2.67;;
6358;SDS011;3212;51.460;11.868;2022-10-16T20:43:42;6.30;;;2.90;;
6358;SDS011;3212;51.460;11.868;2022-10-16T20:47:04;4.67;;;3.07;;
6358;SDS011;3212;51.460;11.868;2022-10-16T20:50:27;5.57;;;3.80;;
6358;SDS011;3212;51.460;11.868;2022-10-16T20:53:51;6.87;;;4.60;;
6358;SDS011;3212;51.460;11.868;2022-10-16T20:57:13;7.00;;;4.30;;
6358;SDS011;3212;51.460;11.868;2022-10-16T21:00:35;8.27;;;3.60;;
6358;SDS011;3212;51.460;11.868;2022-10-16T21:03:59;9.07;;;4.17;;
6358;SDS011;3212;51.460;11.868;2022-10-16T21:07:20;6.43;;;3.67;;
6358;SDS011;3212;51.460;11.868;2022-10-16T21:10:43;5.73;;;3.97;;
6358;SDS011;3212;51.460;11.868;2022-10-16T21:14:07;6.73;;;3.80;;
6358;SDS011;3212;51.460;11.868;2022-10-16T21:17:29;7.80;;;4.90;;
6358;SDS011;3212;51.460;11.868;2022-10-16T21:20:50;7.53;;;4.03;;
6358;SDS011;3212;51.460;11.868;2022-10-16T21:24:13;16.60;;;7.00;;